createdAt,value
2022-08-04T00:00:05.370Z,100938.34
2022-08-04T00:03:03.509Z,100933.75
2022-08-04T00:05:47.406Z,100926.50
2022-08-04T00:08:46.971Z,100929.16
2022-08-04T00:11:19.890Z,100935.94
2022-08-04T00:14:03.013Z,100945.31
2022-08-04T00:16:38.175Z,100942.78
2022-08-04T00:19:32.380Z,100943.72
2022-08-04T00:22:04.272Z,100948.44
2022-08-04T00:24:32.451Z,100937.94
2022-08-04T00:27:00.207Z,100934.97
2022-08-04T00:29:28.124Z,100933.72
2022-08-04T00:31:58.320Z,100932.22
2022-08-04T00:34:28.036Z,100938.78
2022-08-04T00:36:56.399Z,100938.00
2022-08-04T00:39:23.984Z,100938.78
2022-08-04T00:41:59.593Z,100935.34
2022-08-04T00:44:58.099Z,100936.03
2022-08-04T00:47:37.682Z,100935.56
2022-08-04T00:50:07.909Z,100934.88
2022-08-04T00:52:46.540Z,100935.22
2022-08-04T00:55:18.639Z,100938.09
2022-08-04T00:58:24.067Z,100934.41
2022-08-04T01:01:08.574Z,100928.75
2022-08-04T01:04:03.446Z,100925.72
2022-08-04T01:07:03.549Z,100923.91
2022-08-04T01:09:50.639Z,100929.50
2022-08-04T01:12:46.842Z,100925.94
2022-08-04T01:16:16.683Z,100932.59
2022-08-04T01:18:55.604Z,100925.91
2022-08-04T01:21:28.271Z,100921.19
2022-08-04T01:24:17.187Z,100920.38
2022-08-04T01:26:57.791Z,100925.19
2022-08-04T01:29:30.493Z,100926.09
2022-08-04T01:32:19.798Z,100932.19
2022-08-04T01:35:01.204Z,100920.22
2022-08-04T01:38:18.457Z,100925.72
2022-08-04T01:40:53.089Z,100919.03
2022-08-04T01:43:20.838Z,100922.28
2022-08-04T01:45:56.907Z,100917.22
2022-08-04T01:48:25.207Z,100914.34
2022-08-04T01:50:58.809Z,100923.09
2022-08-04T01:53:33.481Z,100914.88
2022-08-04T01:56:02.347Z,100913.06
2022-08-04T01:58:30.495Z,100921.91
2022-08-04T02:01:08.226Z,100911.66
2022-08-04T02:04:18.900Z,100915.13
2022-08-04T02:06:38.626Z,100919.72
2022-08-04T02:09:05.075Z,100918.13
2022-08-04T02:11:31.735Z,100911.44
2022-08-04T02:14:08.483Z,100911.44
2022-08-04T02:16:46.814Z,100910.75
2022-08-04T02:19:44.414Z,100906.03
2022-08-04T02:22:18.858Z,100907.44
2022-08-04T02:24:58.724Z,100905.75
2022-08-04T02:27:29.942Z,100906.78
2022-08-04T02:30:19.016Z,100905.63
2022-08-04T02:32:48.656Z,100908.84
2022-08-04T02:35:20.752Z,100904.22
2022-08-04T02:37:48.932Z,100905.75
2022-08-04T02:40:21.108Z,100900.66
2022-08-04T02:42:47.764Z,100897.91
2022-08-04T02:45:18.537Z,100899.88
2022-08-04T02:48:30.522Z,100893.19
2022-08-04T02:50:35.398Z,100892.72
2022-08-04T02:53:04.400Z,100882.81
2022-08-04T02:55:37.933Z,100896.03
2022-08-04T02:58:05.653Z,100892.75
2022-08-04T03:00:32.917Z,100890.84
2022-08-04T03:03:24.629Z,100879.09
2022-08-04T03:06:17.464Z,100881.97
2022-08-04T03:09:05.768Z,100885.59
2022-08-04T03:11:38.331Z,100881.22
2022-08-04T03:14:28.517Z,100872.69
2022-08-04T03:17:32.364Z,100870.59
2022-08-04T03:20:27.642Z,100868.09
2022-08-04T03:23:42.191Z,100872.94
2022-08-04T03:26:33.064Z,100872.94
2022-08-04T03:29:36.110Z,100872.13
2022-08-04T03:32:25.351Z,100870.75
2022-08-04T03:35:24.204Z,100861.25
2022-08-04T03:38:26.253Z,100863.78
2022-08-04T03:41:10.409Z,100862.41
2022-08-04T03:44:00.833Z,100863.19
2022-08-04T03:46:43.684Z,100859.78
2022-08-04T03:49:49.402Z,100854.28
2022-08-04T03:52:43.673Z,100858.75
2022-08-04T03:55:41.249Z,100863.97
2022-08-04T03:58:19.724Z,100868.25
2022-08-04T04:01:30.574Z,100868.25
2022-08-04T04:04:59.897Z,100861.97
2022-08-04T04:07:40.784Z,100859.47
2022-08-04T04:10:29.153Z,100862.97
2022-08-04T04:13:54.974Z,100851.72
2022-08-04T04:16:24.261Z,100854.59
2022-08-04T04:19:17.263Z,100849.97
2022-08-04T04:22:13.303Z,100858.06
2022-08-04T04:25:04.491Z,100865.00
2022-08-04T04:27:50.545Z,100860.44
2022-08-04T04:30:46.312Z,100862.50
2022-08-04T04:33:44.395Z,100862.88
2022-08-04T04:36:32.993Z,100861.34
2022-08-04T04:39:24.266Z,100858.72
2022-08-04T04:42:09.528Z,100858.97
2022-08-04T04:44:55.367Z,100864.13
2022-08-04T04:48:05.907Z,100856.78
2022-08-04T04:50:36.424Z,100861.63
2022-08-04T04:53:34.709Z,100863.38
2022-08-04T04:56:43.748Z,100864.63
2022-08-04T04:59:13.501Z,100863.94
2022-08-04T05:02:17.137Z,100851.75
2022-08-04T05:04:53.281Z,100865.69
2022-08-04T05:07:37.373Z,100860.84
2022-08-04T05:10:24.317Z,100858.75
2022-08-04T05:14:36.199Z,100860.97
2022-08-04T05:16:20.620Z,100854.75
2022-08-04T05:18:54.742Z,100855.78
2022-08-04T05:21:45.371Z,100856.13
2022-08-04T05:24:16.295Z,100851.03
2022-08-04T05:26:48.488Z,100851.63
2022-08-04T05:29:35.118Z,100846.44
2022-08-04T05:32:07.400Z,100846.09
2022-08-04T05:34:40.985Z,100842.41
2022-08-04T05:37:20.618Z,100833.84
2022-08-04T05:39:54.005Z,100830.34
2022-08-04T05:42:21.794Z,100837.84
2022-08-04T05:44:51.235Z,100834.22
2022-08-04T05:47:21.446Z,100833.47
2022-08-04T05:49:55.693Z,100825.09
2022-08-04T05:52:30.353Z,100828.09
2022-08-04T05:54:59.310Z,100831.06
2022-08-04T05:57:26.871Z,100826.59
2022-08-04T05:59:57.126Z,100819.28
2022-08-04T06:02:25.379Z,100824.28
2022-08-04T06:04:54.055Z,100816.47
2022-08-04T06:07:20.836Z,100818.09
2022-08-04T06:09:47.500Z,100819.91
2022-08-04T06:12:38.146Z,100821.50
2022-08-04T06:15:06.431Z,100817.66
2022-08-04T06:18:35.494Z,100812.53
2022-08-04T06:20:32.535Z,100810.00
2022-08-04T06:23:13.618Z,100807.97
2022-08-04T06:26:00.537Z,100804.25
2022-08-04T06:28:28.967Z,100800.97
2022-08-04T06:32:27.708Z,100798.81
2022-08-04T06:33:54.867Z,100801.22
2022-08-04T06:36:22.115Z,100806.25
2022-08-04T06:38:58.336Z,100799.28
2022-08-04T06:41:26.242Z,100803.22
2022-08-04T06:43:53.921Z,100800.38
2022-08-04T06:46:20.818Z,100796.28
2022-08-04T06:48:48.146Z,100798.53
2022-08-04T06:51:24.863Z,100791.41
2022-08-04T06:53:55.716Z,100793.63
2022-08-04T06:56:25.308Z,100786.16
2022-08-04T06:58:55.857Z,100784.78
2022-08-04T07:01:24.638Z,100789.22
2022-08-04T07:03:52.873Z,100777.78
2022-08-04T07:06:23.913Z,100780.63
2022-08-04T07:08:51.730Z,100786.38
2022-08-04T07:11:20.293Z,100776.66
2022-08-04T07:13:50.047Z,100779.75
2022-08-04T07:16:18.401Z,100773.59
2022-08-04T07:18:45.235Z,100777.28
2022-08-04T07:21:18.573Z,100768.31
2022-08-04T07:23:45.368Z,100776.84
2022-08-04T07:26:13.350Z,100777.41
2022-08-04T07:28:41.777Z,100769.00
2022-08-04T07:31:34.326Z,100765.88
2022-08-04T07:34:16.805Z,100761.84
2022-08-04T07:36:50.973Z,100769.16
2022-08-04T07:39:27.294Z,100764.81
2022-08-04T07:41:57.197Z,100770.16
2022-08-04T07:44:23.706Z,100765.09
2022-08-04T07:46:50.180Z,100755.63
2022-08-04T07:49:56.301Z,100758.06
2022-08-04T07:52:04.603Z,100753.72
2022-08-04T07:54:31.277Z,100753.44
2022-08-04T07:56:57.953Z,100755.47
2022-08-04T07:59:24.864Z,100753.03
2022-08-04T08:01:53.206Z,100750.25
2022-08-04T08:04:20.882Z,100754.28
2022-08-04T08:06:47.537Z,100747.81
2022-08-04T08:09:16.120Z,100747.38
2022-08-04T08:12:35.366Z,100743.69
2022-08-04T08:14:31.529Z,100743.66
2022-08-04T08:17:01.840Z,100741.19
2022-08-04T08:19:29.906Z,100735.44
2022-08-04T08:21:59.297Z,100739.34
2022-08-04T08:24:26.479Z,100729.56
2022-08-04T08:26:54.055Z,100733.13
2022-08-04T08:29:21.144Z,100718.28
2022-08-04T08:31:57.581Z,100723.13
2022-08-04T08:34:31.072Z,100723.09
2022-08-04T08:37:16.627Z,100720.44
2022-08-04T08:39:56.085Z,100710.66
2022-08-04T08:42:58.559Z,100717.66
2022-08-04T08:46:04.262Z,100712.19
2022-08-04T08:49:05.388Z,100712.41
2022-08-04T08:51:55.746Z,100717.81
2022-08-04T08:54:54.844Z,100715.47
2022-08-04T08:57:59.241Z,100723.47
2022-08-04T09:00:55.598Z,100713.13
2022-08-04T09:03:38.367Z,100708.19
2022-08-04T09:06:18.990Z,100705.47
2022-08-04T09:09:05.493Z,100716.16
2022-08-04T09:11:41.982Z,100700.72
2022-08-04T09:14:24.713Z,100706.00
2022-08-04T09:17:05.275Z,100701.22
2022-08-04T09:19:48.550Z,100704.34
2022-08-04T09:22:30.015Z,100702.56
2022-08-04T09:25:11.052Z,100700.53
2022-08-04T09:28:06.061Z,100695.53
2022-08-04T09:30:40.609Z,100696.97
2022-08-04T09:33:44.615Z,100703.47
2022-08-04T09:36:34.628Z,100698.75
2022-08-04T09:39:11.910Z,100693.47
2022-08-04T09:41:56.598Z,100691.28
2022-08-04T09:44:52.723Z,100705.72
2022-08-04T09:47:46.440Z,100698.47
2022-08-04T09:50:34.482Z,100691.06
2022-08-04T09:53:38.616Z,100689.91
2022-08-04T09:56:17.548Z,100695.31
2022-08-04T09:59:00.099Z,100687.25
2022-08-04T10:01:31.681Z,100697.75
2022-08-04T10:04:03.874Z,100683.66
2022-08-04T10:06:45.764Z,100683.03
2022-08-04T10:09:33.649Z,100682.28
2022-08-04T10:12:12.909Z,100691.19
2022-08-04T10:14:51.422Z,100680.59
2022-08-04T10:17:39.408Z,100681.03
2022-08-04T10:20:37.903Z,100678.06
2022-08-04T10:23:56.214Z,100670.66
2022-08-04T10:26:30.902Z,100668.97
2022-08-04T10:29:09.655Z,100668.19
2022-08-04T10:31:55.765Z,100663.53
2022-08-04T10:34:27.662Z,100662.59
2022-08-04T10:37:06.158Z,100665.25
2022-08-04T10:40:03.697Z,100669.97
2022-08-04T10:42:31.880Z,100661.31
2022-08-04T10:45:13.907Z,100657.84
2022-08-04T10:47:53.317Z,100653.22
2022-08-04T10:50:23.580Z,100654.75
2022-08-04T10:53:01.120Z,100652.53
2022-08-04T10:56:06.221Z,100646.22
2022-08-04T10:58:48.695Z,100652.72
2022-08-04T11:01:59.722Z,100643.22
2022-08-04T11:04:37.926Z,100645.34
2022-08-04T11:07:04.702Z,100638.47
2022-08-04T11:09:33.710Z,100642.81
2022-08-04T11:12:09.984Z,100641.22
2022-08-04T11:14:46.698Z,100643.22
2022-08-04T11:17:22.615Z,100649.09
2022-08-04T11:20:24.820Z,100647.44
2022-08-04T11:23:02.655Z,100642.63
2022-08-04T11:25:36.162Z,100636.72
2022-08-04T11:28:11.253Z,100636.97
2022-08-04T11:30:52.368Z,100631.75
2022-08-04T11:33:22.491Z,100635.94
2022-08-04T11:36:04.458Z,100630.31
2022-08-04T11:38:51.838Z,100634.91
2022-08-04T11:41:26.558Z,100626.34
2022-08-04T11:44:01.627Z,100627.06
2022-08-04T11:46:46.461Z,100629.47
2022-08-04T11:49:57.341Z,100623.59
2022-08-04T11:52:22.112Z,100628.63
2022-08-04T11:54:52.354Z,100619.28
2022-08-04T11:57:21.058Z,100623.09
2022-08-04T11:59:49.382Z,100623.09
2022-08-04T12:02:37.922Z,100627.25
2022-08-04T12:05:07.349Z,100634.31
2022-08-04T12:08:03.163Z,100624.19
2022-08-04T12:11:09.013Z,100633.09
2022-08-04T12:14:01.059Z,100635.03
2022-08-04T12:16:35.845Z,100634.53
2022-08-04T12:19:09.787Z,100626.00
2022-08-04T12:21:48.028Z,100629.19
2022-08-04T12:24:22.513Z,100624.19
2022-08-04T12:27:04.655Z,100619.09
2022-08-04T12:29:34.640Z,100612.72
2022-08-04T12:32:13.994Z,100610.97
2022-08-04T12:34:49.337Z,100613.63
2022-08-04T12:37:29.667Z,100625.25
2022-08-04T12:40:28.306Z,100609.81
2022-08-04T12:43:02.116Z,100618.97
2022-08-04T12:45:29.941Z,100607.97
2022-08-04T12:48:00.743Z,100621.00
2022-08-04T12:50:29.999Z,100620.25
2022-08-04T12:53:02.031Z,100614.91
2022-08-04T12:55:31.772Z,100616.50
2022-08-04T12:58:00.843Z,100609.47
2022-08-04T13:00:38.042Z,100612.97
2022-08-04T13:03:10.970Z,100614.41
2022-08-04T13:05:39.941Z,100611.53
2022-08-04T13:08:08.443Z,100610.25
2022-08-04T13:10:39.342Z,100594.00
2022-08-04T13:13:06.597Z,100594.81
2022-08-04T13:15:33.607Z,100598.91
2022-08-04T13:18:15.570Z,100605.41
2022-08-04T13:20:43.866Z,100603.16
2022-08-04T13:23:14.355Z,100591.16
2022-08-04T13:26:42.216Z,100598.34
2022-08-04T13:28:34.247Z,100596.09
2022-08-04T13:31:02.773Z,100594.13
2022-08-04T13:33:35.419Z,100590.28
2022-08-04T13:36:02.797Z,100588.09
2022-08-04T13:38:30.298Z,100595.69
2022-08-04T13:41:02.142Z,100590.94
2022-08-04T13:44:16.860Z,100592.63
2022-08-04T13:46:31.506Z,100583.50
2022-08-04T13:49:28.205Z,100581.44
2022-08-04T13:52:01.913Z,100568.59
2022-08-04T13:54:44.016Z,100568.75
2022-08-04T13:57:27.616Z,100568.91
2022-08-04T14:00:00.073Z,100570.00
2022-08-04T14:02:37.774Z,100588.16
2022-08-04T14:05:18.389Z,100556.06
2022-08-04T14:07:49.732Z,100562.22
2022-08-04T14:10:16.210Z,100570.56
2022-08-04T14:12:48.177Z,100567.00
2022-08-04T14:16:01.599Z,100563.00
2022-08-04T14:18:30.352Z,100563.47
2022-08-04T14:21:02.578Z,100556.06
2022-08-04T14:23:37.452Z,100557.47
2022-08-04T14:26:35.258Z,100562.53
2022-08-04T14:29:27.025Z,100564.66
2022-08-04T14:32:10.563Z,100557.97
2022-08-04T14:34:41.447Z,100573.41
2022-08-04T14:37:18.153Z,100571.97
2022-08-04T14:40:18.539Z,100563.31
2022-08-04T14:42:55.681Z,100565.31
2022-08-04T14:45:38.150Z,100576.34
2022-08-04T14:48:13.518Z,100573.66
2022-08-04T14:50:48.329Z,100574.97
2022-08-04T14:53:29.221Z,100573.69
2022-08-04T14:55:58.305Z,100571.81
2022-08-04T14:58:35.799Z,100576.66
2022-08-04T15:01:10.478Z,100577.38
2022-08-04T15:03:50.766Z,100582.22
2022-08-04T15:06:26.423Z,100585.53
2022-08-04T15:08:56.863Z,100601.94
2022-08-04T15:11:24.907Z,100617.78
2022-08-04T15:13:53.330Z,100632.13
2022-08-04T15:16:21.406Z,100619.94
2022-08-04T15:18:49.122Z,100630.84
2022-08-04T15:21:17.035Z,100630.41
2022-08-04T15:23:43.601Z,100643.25
2022-08-04T15:26:15.449Z,100634.38
2022-08-04T15:28:48.853Z,100645.09
2022-08-04T15:32:07.162Z,100632.81
2022-08-04T15:34:06.674Z,100635.63
2022-08-04T15:36:38.522Z,100638.50
2022-08-04T15:39:27.013Z,100651.41
2022-08-04T15:42:21.865Z,100658.25
2022-08-04T15:45:04.101Z,100660.63
2022-08-04T15:47:30.769Z,100664.31
2022-08-04T15:50:11.954Z,100663.56
2022-08-04T15:53:10.710Z,100689.94
2022-08-04T15:55:44.127Z,100691.13
2022-08-04T15:58:12.887Z,100697.53
2022-08-04T16:00:55.150Z,100695.91
2022-08-04T16:03:59.262Z,100694.63
2022-08-04T16:06:22.850Z,100713.75
2022-08-04T16:08:57.378Z,100718.91
2022-08-04T16:11:31.166Z,100703.69
2022-08-04T16:13:58.461Z,100707.72
2022-08-04T16:16:29.232Z,100706.94
2022-08-04T16:19:04.268Z,100708.56
2022-08-04T16:21:33.410Z,100711.34
2022-08-04T16:24:10.111Z,100705.34
2022-08-04T16:26:36.620Z,100716.88
2022-08-04T16:29:36.423Z,100711.56
2022-08-04T16:32:06.211Z,100718.78
2022-08-04T16:37:55.233Z,100718.88
2022-08-04T16:40:37.732Z,100720.06
2022-08-04T16:43:31.006Z,100708.13
2022-08-04T16:46:04.558Z,100707.34
2022-08-04T16:48:35.788Z,100711.75
2022-08-04T16:51:06.344Z,100710.88
2022-08-04T16:53:57.699Z,100722.06
2022-08-04T16:56:29.561Z,100718.09
2022-08-04T16:58:56.921Z,100712.53
2022-08-04T17:01:50.166Z,100711.75
2022-08-04T17:04:17.100Z,100721.31
2022-08-04T17:06:46.535Z,100711.34
2022-08-04T17:09:18.330Z,100703.78
2022-08-04T17:11:46.443Z,100707.41
2022-08-04T17:14:13.598Z,100717.00
2022-08-04T17:16:42.500Z,100713.00
2022-08-04T17:19:25.251Z,100709.41
2022-08-04T17:22:18.174Z,100709.00
2022-08-04T17:24:45.033Z,100708.59
2022-08-04T17:28:10.041Z,100728.06
2022-08-04T17:29:59.285Z,100729.25
2022-08-04T17:32:26.348Z,100726.00
2022-08-04T17:35:00.096Z,100710.06
2022-08-04T17:37:41.111Z,100713.22
2022-08-04T17:40:22.520Z,100707.09
2022-08-04T17:44:05.193Z,100702.28
2022-08-04T17:46:34.234Z,100698.25
2022-08-04T17:49:03.344Z,100710.59
2022-08-04T17:52:04.648Z,100710.59
2022-08-04T17:54:37.167Z,100713.75
2022-08-04T17:57:23.630Z,100719.31
2022-08-04T17:59:57.438Z,100712.53
2022-08-04T18:02:33.300Z,100717.19
2022-08-04T18:05:07.840Z,100723.53
2022-08-04T18:08:38.571Z,100721.84
2022-08-04T18:10:54.539Z,100732.16
2022-08-04T18:13:28.030Z,100730.94
2022-08-04T18:16:04.969Z,100744.44
2022-08-04T18:18:31.847Z,100743.97
2022-08-04T18:21:02.754Z,100746.66
2022-08-04T18:26:17.950Z,100766.44
2022-08-04T18:28:44.512Z,100769.22
2022-08-04T18:31:11.202Z,100766.34
2022-08-04T18:33:42.937Z,100756.03
2022-08-04T18:36:34.365Z,100736.81
2022-08-04T18:39:12.750Z,100716.81
2022-08-04T18:44:29.409Z,100721.00
2022-08-04T18:50:59.886Z,100735.66
2022-08-04T18:52:32.294Z,100744.03
2022-08-04T18:55:01.842Z,100756.78
2022-08-04T18:57:58.931Z,100762.41
2022-08-04T19:00:17.599Z,100767.22
2022-08-04T19:02:46.883Z,100775.56
2022-08-04T19:05:17.032Z,100783.44
2022-08-04T19:08:01.770Z,100802.91
2022-08-04T19:10:30.885Z,100805.16
2022-08-04T19:12:58.744Z,100812.00
2022-08-04T19:15:34.608Z,100810.34
2022-08-04T19:18:01.969Z,100802.31
2022-08-04T19:20:29.398Z,100816.19
2022-08-04T19:24:28.584Z,100827.31
2022-08-04T19:25:58.896Z,100815.94
2022-08-04T19:28:34.435Z,100833.63
2022-08-04T19:31:09.457Z,100841.13
2022-08-04T19:33:59.544Z,100845.44
2022-08-04T19:39:14.466Z,100839.41
2022-08-04T19:42:06.633Z,100826.44
2022-08-04T19:44:29.948Z,100828.22
2022-08-04T19:46:57.858Z,100828.53
2022-08-04T19:50:04.108Z,100836.06
2022-08-04T19:52:14.384Z,100844.66
2022-08-04T19:55:00.190Z,100839.03
2022-08-04T19:57:37.937Z,100840.53
2022-08-04T20:00:08.973Z,100843.19
2022-08-04T20:02:36.519Z,100858.22
2022-08-04T20:05:08.657Z,100866.44
2022-08-04T20:07:35.729Z,100867.44
2022-08-04T20:10:04.976Z,100874.63
2022-08-04T20:12:31.813Z,100870.44
2022-08-04T20:14:58.290Z,100871.59
2022-08-04T20:18:07.079Z,100865.03
2022-08-04T20:20:13.486Z,100878.56
2022-08-04T20:22:51.999Z,100899.63
2022-08-04T20:25:36.055Z,100912.28
2022-08-04T20:28:03.913Z,100911.34
2022-08-04T20:30:30.758Z,100911.84
2022-08-04T20:32:58.079Z,100913.19
2022-08-04T20:35:26.898Z,100915.38
2022-08-04T20:38:00.374Z,100912.25
2022-08-04T20:40:28.377Z,100918.84
2022-08-04T20:42:57.205Z,100914.66
2022-08-04T20:45:24.120Z,100905.63
2022-08-04T20:48:10.540Z,100905.69
2022-08-04T20:50:37.016Z,100912.09
2022-08-04T20:53:05.663Z,100914.84
2022-08-04T20:55:55.243Z,100912.81
2022-08-04T20:58:27.572Z,100919.59
2022-08-04T21:00:55.303Z,100929.28
2022-08-04T21:03:49.701Z,100932.41
2022-08-04T21:06:08.743Z,100939.56
2022-08-04T21:08:35.153Z,100941.44
2022-08-04T21:11:03.082Z,100928.09
2022-08-04T21:13:50.700Z,100905.91
2022-08-04T21:16:53.573Z,100881.69
2022-08-04T21:19:06.711Z,100883.09
2022-08-04T21:21:40.536Z,100880.22
2022-08-04T21:24:07.783Z,100880.41
2022-08-04T21:26:35.046Z,100876.25
2022-08-04T21:29:04.121Z,100886.38
2022-08-04T21:31:30.676Z,100896.06
2022-08-04T21:34:03.337Z,100897.69
2022-08-04T21:36:30.478Z,100901.44
2022-08-04T21:38:58.094Z,100903.16
2022-08-04T21:41:27.080Z,100907.78
2022-08-04T21:43:56.231Z,100917.13
2022-08-04T21:46:24.295Z,100925.91
2022-08-04T21:48:51.172Z,100927.03
2022-08-04T21:51:55.802Z,100943.66
2022-08-04T21:54:15.269Z,100961.44
2022-08-04T21:56:51.004Z,100969.56
2022-08-04T21:59:28.588Z,100959.16
2022-08-04T22:02:00.318Z,100961.38
2022-08-04T22:04:28.300Z,100951.09
2022-08-04T22:07:02.777Z,100970.13
2022-08-04T22:09:30.631Z,100974.06
2022-08-04T22:12:10.437Z,100965.63
2022-08-04T22:14:39.440Z,100954.00
2022-08-04T22:17:06.008Z,100954.09
2022-08-04T22:19:49.992Z,100953.19
2022-08-04T22:22:25.314Z,100950.91
2022-08-04T22:24:58.541Z,100957.38
2022-08-04T22:27:47.383Z,100940.41
2022-08-04T22:30:17.224Z,100943.97
2022-08-04T22:32:48.143Z,100949.28
2022-08-04T22:35:43.045Z,100956.53
2022-08-04T22:38:06.346Z,100953.09
2022-08-04T22:40:47.616Z,100945.22
2022-08-04T22:43:32.826Z,100934.59
2022-08-04T22:46:08.345Z,100942.53
2022-08-04T22:48:37.671Z,100933.56
2022-08-04T22:51:06.414Z,100934.69
2022-08-04T22:53:35.389Z,100925.16
2022-08-04T22:56:09.445Z,100912.81
2022-08-04T22:58:51.170Z,100899.88
2022-08-04T23:01:18.543Z,100895.97
2022-08-04T23:03:50.855Z,100891.13
2022-08-04T23:06:24.393Z,100887.66
2022-08-04T23:08:54.100Z,100898.91
2022-08-04T23:11:20.720Z,100918.25
2022-08-04T23:13:47.325Z,100922.88
2022-08-04T23:16:15.564Z,100934.59
2022-08-04T23:18:45.288Z,100947.16
2022-08-04T23:21:16.101Z,100954.28
2022-08-04T23:23:45.563Z,100962.09
2022-08-04T23:26:27.565Z,100966.88
2022-08-04T23:28:57.066Z,100958.94
2022-08-04T23:31:24.485Z,100952.34
2022-08-04T23:33:52.266Z,100957.72
2022-08-04T23:36:29.458Z,100958.31
2022-08-04T23:39:03.925Z,100961.34
2022-08-04T23:41:53.479Z,100966.41
2022-08-04T23:44:17.536Z,100966.38
2022-08-04T23:46:51.062Z,100961.56
2022-08-04T23:49:20.017Z,100956.38
2022-08-04T23:51:49.811Z,100959.22
2022-08-04T23:54:16.281Z,100969.03
2022-08-04T23:56:50.062Z,100973.47
2022-08-04T23:59:17.878Z,100986.63
